Monroe Regional Airport Monroe US
ICAO: KMLU
IATA: MLU
Category: Large
Scheduled Services: Yes

Elevation: 79 ft
TransAlt. 18000 ft.

Airport Communications:
APP/DEP:118.15
ATIS:125.05
CLNC DEL:121.65
CTAF:118.9
GND:121.9
DE RIDDER RDO:122.25
TWR:118.9
UNICOM:122.95

KMLU Zoom In..

Runways:

(A) RW 04 length 7505 ft width 150 ft
ILS 109.50 / hdg 42

(B) RW 14 length 4999 ft width 150 ft
---- / hdg 137

(C) RW 18 length 5001 ft width 150 ft
---- / hdg 177

(D) RW 22 length 7505 ft width 150 ft
ILS 109.50 / hdg 222

(E) RW 32 length 4999 ft width 150 ft
---- / hdg 317

(F) RW 36 length 5001 ft width 150 ft
---- / hdg 357

Location; KMLU
Day. 20 / Time. 09.53 Zulu
* Altimeter: 30.32
* Temperature: 06° c. 42.8°f.
* Wind from: 040° Speed 05 kn.
Dewpoint: 03° c.
Visibility: 10 Statute Miles.
Clouds: Clear (automated report).

KMLU 200953Z AUTO 04005KT 10SM CLR 06/03 A3032 RMK AO2 SLP267 T00560028


Wind From 040°
Speed 05 kn.

  YouTube Music Video
 
jpsmedia.com for Web Design  worldairports.se 2018   terms of use